sensor_id;sensor_type;location;lat;lon;timestamp;P1;durP1;ratioP1;P2;durP2;ratioP2
35223;SDS011;21367;51.930;8.112;2023-04-12T00:03:51;11.20;;;2.17;;
35223;SDS011;21367;51.930;8.112;2023-04-12T00:08:58;14.05;;;2.45;;
35223;SDS011;21367;51.930;8.112;2023-04-12T00:14:03;13.43;;;2.53;;
35223;SDS011;21367;51.930;8.112;2023-04-12T00:19:07;16.13;;;2.80;;
35223;SDS011;21367;51.930;8.112;2023-04-12T00:24:17;17.80;;;2.72;;
35223;SDS011;21367;51.930;8.112;2023-04-12T00:29:21;16.50;;;2.88;;
35223;SDS011;21367;51.930;8.112;2023-04-12T00:34:26;13.93;;;2.33;;
35223;SDS011;21367;51.930;8.112;2023-04-12T00:39:32;12.52;;;2.67;;
35223;SDS011;21367;51.930;8.112;2023-04-12T00:44:37;14.35;;;1.95;;
35223;SDS011;21367;51.930;8.112;2023-04-12T00:49:43;16.92;;;2.30;;
35223;SDS011;21367;51.930;8.112;2023-04-12T00:54:51;13.07;;;2.58;;
35223;SDS011;21367;51.930;8.112;2023-04-12T00:59:56;12.73;;;2.55;;
35223;SDS011;21367;51.930;8.112;2023-04-12T01:05:00;11.05;;;3.08;;
35223;SDS011;21367;51.930;8.112;2023-04-12T01:10:11;20.42;;;2.80;;
35223;SDS011;21367;51.930;8.112;2023-04-12T01:15:26;14.15;;;2.92;;
35223;SDS011;21367;51.930;8.112;2023-04-12T01:20:40;16.73;;;2.30;;
35223;SDS011;21367;51.930;8.112;2023-04-12T01:26:08;17.77;;;2.85;;
35223;SDS011;21367;51.930;8.112;2023-04-12T01:31:23;10.48;;;2.30;;
35223;SDS011;21367;51.930;8.112;2023-04-12T01:36:30;11.70;;;2.50;;
35223;SDS011;21367;51.930;8.112;2023-04-12T01:41:40;13.73;;;2.58;;
35223;SDS011;21367;51.930;8.112;2023-04-12T01:46:51;13.70;;;2.47;;
35223;SDS011;21367;51.930;8.112;2023-04-12T01:52:00;10.00;;;2.13;;
35223;SDS011;21367;51.930;8.112;2023-04-12T01:57:12;14.25;;;3.33;;
35223;SDS011;21367;51.930;8.112;2023-04-12T02:02:21;19.98;;;2.47;;
35223;SDS011;21367;51.930;8.112;2023-04-12T02:07:26;19.27;;;3.10;;
35223;SDS011;21367;51.930;8.112;2023-04-12T02:12:33;16.50;;;2.53;;
35223;SDS011;21367;51.930;8.112;2023-04-12T02:17:41;9.68;;;2.00;;
35223;SDS011;21367;51.930;8.112;2023-04-12T02:22:48;10.55;;;2.10;;
35223;SDS011;21367;51.930;8.112;2023-04-12T02:27:53;15.45;;;2.20;;
35223;SDS011;21367;51.930;8.112;2023-04-12T02:33:02;16.20;;;2.30;;
35223;SDS011;21367;51.930;8.112;2023-04-12T02:38:09;12.02;;;2.40;;
35223;SDS011;21367;51.930;8.112;2023-04-12T02:43:16;15.20;;;2.53;;
35223;SDS011;21367;51.930;8.112;2023-04-12T02:48:34;12.10;;;2.03;;
35223;SDS011;21367;51.930;8.112;2023-04-12T02:53:39;14.40;;;2.17;;
35223;SDS011;21367;51.930;8.112;2023-04-12T02:58:48;16.70;;;2.10;;
35223;SDS011;21367;51.930;8.112;2023-04-12T03:04:09;9.48;;;1.98;;
35223;SDS011;21367;51.930;8.112;2023-04-12T03:09:18;12.57;;;2.08;;
35223;SDS011;21367;51.930;8.112;2023-04-12T03:14:22;21.00;;;2.30;;
35223;SDS011;21367;51.930;8.112;2023-04-12T03:19:30;17.10;;;2.33;;
35223;SDS011;21367;51.930;8.112;2023-04-12T03:24:37;18.17;;;2.35;;
35223;SDS011;21367;51.930;8.112;2023-04-12T03:29:42;15.07;;;1.97;;
35223;SDS011;21367;51.930;8.112;2023-04-12T03:34:53;13.10;;;2.22;;
35223;SDS011;21367;51.930;8.112;2023-04-12T03:39:59;11.88;;;2.80;;
35223;SDS011;21367;51.930;8.112;2023-04-12T03:45:35;16.05;;;3.40;;
35223;SDS011;21367;51.930;8.112;2023-04-12T03:51:01;11.30;;;2.40;;
35223;SDS011;21367;51.930;8.112;2023-04-12T03:56:38;13.70;;;2.13;;
35223;SDS011;21367;51.930;8.112;2023-04-12T04:02:21;17.42;;;2.70;;
35223;SDS011;21367;51.930;8.112;2023-04-12T04:12:37;11.65;;;2.60;;
35223;SDS011;21367;51.930;8.112;2023-04-12T04:17:44;10.18;;;2.30;;
35223;SDS011;21367;51.930;8.112;2023-04-12T04:22:55;9.05;;;1.85;;
35223;SDS011;21367;51.930;8.112;2023-04-12T04:27:59;12.15;;;2.88;;
35223;SDS011;21367;51.930;8.112;2023-04-12T04:33:06;16.92;;;2.63;;
35223;SDS011;21367;51.930;8.112;2023-04-12T04:38:21;19.58;;;2.67;;
35223;SDS011;21367;51.930;8.112;2023-04-12T04:43:52;9.77;;;2.58;;
35223;SDS011;21367;51.930;8.112;2023-04-12T04:49:16;15.25;;;2.35;;
35223;SDS011;21367;51.930;8.112;2023-04-12T04:54:24;9.00;;;2.05;;
35223;SDS011;21367;51.930;8.112;2023-04-12T04:59:44;8.90;;;1.67;;
35223;SDS011;21367;51.930;8.112;2023-04-12T05:04:50;13.00;;;1.90;;
35223;SDS011;21367;51.930;8.112;2023-04-12T05:10:01;8.95;;;1.92;;
35223;SDS011;21367;51.930;8.112;2023-04-12T05:15:08;5.72;;;1.55;;
35223;SDS011;21367;51.930;8.112;2023-04-12T05:20:14;8.77;;;1.50;;
35223;SDS011;21367;51.930;8.112;2023-04-12T05:31:25;6.45;;;1.75;;
35223;SDS011;21367;51.930;8.112;2023-04-12T05:36:57;8.25;;;1.50;;
35223;SDS011;21367;51.930;8.112;2023-04-12T05:42:21;3.55;;;1.17;;
35223;SDS011;21367;51.930;8.112;2023-04-12T05:47:28;8.93;;;1.58;;
35223;SDS011;21367;51.930;8.112;2023-04-12T05:52:32;7.18;;;1.25;;
35223;SDS011;21367;51.930;8.112;2023-04-12T05:57:36;6.53;;;1.27;;
35223;SDS011;21367;51.930;8.112;2023-04-12T06:02:45;4.17;;;1.23;;
35223;SDS011;21367;51.930;8.112;2023-04-12T06:07:50;3.65;;;1.00;;
35223;SDS011;21367;51.930;8.112;2023-04-12T06:12:55;3.42;;;1.10;;
35223;SDS011;21367;51.930;8.112;2023-04-12T06:18:02;10.73;;;2.45;;
35223;SDS011;21367;51.930;8.112;2023-04-12T06:23:06;3.85;;;1.02;;
35223;SDS011;21367;51.930;8.112;2023-04-12T06:28:10;4.80;;;0.93;;
35223;SDS011;21367;51.930;8.112;2023-04-12T06:33:20;2.50;;;0.90;;
35223;SDS011;21367;51.930;8.112;2023-04-12T06:38:26;4.60;;;1.20;;
35223;SDS011;21367;51.930;8.112;2023-04-12T06:43:30;5.18;;;1.10;;
35223;SDS011;21367;51.930;8.112;2023-04-12T06:48:37;4.32;;;0.85;;
35223;SDS011;21367;51.930;8.112;2023-04-12T06:58:44;2.65;;;1.10;;
35223;SDS011;21367;51.930;8.112;2023-04-12T07:03:50;1.17;;;0.57;;
35223;SDS011;21367;51.930;8.112;2023-04-12T07:08:54;3.22;;;1.13;;
35223;SDS011;21367;51.930;8.112;2023-04-12T07:13:58;5.15;;;1.02;;
35223;SDS011;21367;51.930;8.112;2023-04-12T07:19:04;2.67;;;1.10;;
35223;SDS011;21367;51.930;8.112;2023-04-12T07:24:08;6.07;;;1.10;;
35223;SDS011;21367;51.930;8.112;2023-04-12T07:29:12;6.82;;;1.23;;
35223;SDS011;21367;51.930;8.112;2023-04-12T07:34:19;3.20;;;1.20;;
35223;SDS011;21367;51.930;8.112;2023-04-12T07:39:23;7.07;;;1.17;;
35223;SDS011;21367;51.930;8.112;2023-04-12T07:44:29;7.03;;;1.20;;
35223;SDS011;21367;51.930;8.112;2023-04-12T07:49:46;4.50;;;1.10;;
35223;SDS011;21367;51.930;8.112;2023-04-12T07:54:53;2.40;;;0.95;;
35223;SDS011;21367;51.930;8.112;2023-04-12T07:59:58;3.25;;;1.10;;
35223;SDS011;21367;51.930;8.112;2023-04-12T08:05:16;2.40;;;0.80;;
35223;SDS011;21367;51.930;8.112;2023-04-12T08:10:19;2.97;;;1.02;;
35223;SDS011;21367;51.930;8.112;2023-04-12T08:15:24;2.75;;;1.48;;
35223;SDS011;21367;51.930;8.112;2023-04-12T08:20:33;2.58;;;0.77;;
35223;SDS011;21367;51.930;8.112;2023-04-12T08:25:43;4.43;;;1.02;;
35223;SDS011;21367;51.930;8.112;2023-04-12T08:30:51;3.00;;;0.82;;
35223;SDS011;21367;51.930;8.112;2023-04-12T08:35:57;1.85;;;0.82;;
35223;SDS011;21367;51.930;8.112;2023-04-12T08:41:14;5.65;;;1.30;;
35223;SDS011;21367;51.930;8.112;2023-04-12T08:46:23;6.05;;;2.00;;
35223;SDS011;21367;51.930;8.112;2023-04-12T08:51:36;4.80;;;1.75;;
35223;SDS011;21367;51.930;8.112;2023-04-12T08:56:42;2.78;;;0.90;;
35223;SDS011;21367;51.930;8.112;2023-04-12T09:01:46;2.55;;;0.60;;
35223;SDS011;21367;51.930;8.112;2023-04-12T09:06:56;1.77;;;0.50;;
35223;SDS011;21367;51.930;8.112;2023-04-12T09:12:06;1.10;;;0.60;;
35223;SDS011;21367;51.930;8.112;2023-04-12T09:17:21;0.93;;;0.30;;
35223;SDS011;21367;51.930;8.112;2023-04-12T09:22:35;0.85;;;0.40;;
35223;SDS011;21367;51.930;8.112;2023-04-12T09:27:47;1.42;;;0.50;;
35223;SDS011;21367;51.930;8.112;2023-04-12T09:32:51;0.93;;;0.60;;
35223;SDS011;21367;51.930;8.112;2023-04-12T09:38:08;2.17;;;0.30;;
35223;SDS011;21367;51.930;8.112;2023-04-12T09:43:13;0.63;;;0.47;;
35223;SDS011;21367;51.930;8.112;2023-04-12T09:48:19;1.65;;;0.30;;
35223;SDS011;21367;51.930;8.112;2023-04-12T09:53:28;0.70;;;0.30;;
35223;SDS011;21367;51.930;8.112;2023-04-12T09:58:35;1.40;;;0.30;;
35223;SDS011;21367;51.930;8.112;2023-04-12T10:03:49;0.45;;;0.30;;
35223;SDS011;21367;51.930;8.112;2023-04-12T10:09:00;3.17;;;0.80;;
35223;SDS011;21367;51.930;8.112;2023-04-12T10:14:06;2.67;;;0.40;;
35223;SDS011;21367;51.930;8.112;2023-04-12T10:19:12;1.80;;;0.60;;
35223;SDS011;21367;51.930;8.112;2023-04-12T10:24:20;1.63;;;1.05;;
35223;SDS011;21367;51.930;8.112;2023-04-12T10:29:27;3.30;;;0.50;;
35223;SDS011;21367;51.930;8.112;2023-04-12T10:34:41;5.97;;;0.50;;
35223;SDS011;21367;51.930;8.112;2023-04-12T10:39:54;0.90;;;0.60;;
35223;SDS011;21367;51.930;8.112;2023-04-12T10:50:33;7.28;;;2.40;;
35223;SDS011;21367;51.930;8.112;2023-04-12T10:55:42;3.33;;;1.10;;
35223;SDS011;21367;51.930;8.112;2023-04-12T11:06:17;0.63;;;0.30;;
35223;SDS011;21367;51.930;8.112;2023-04-12T11:11:55;3.38;;;0.60;;
35223;SDS011;21367;51.930;8.112;2023-04-12T11:22:28;1.00;;;0.60;;
35223;SDS011;21367;51.930;8.112;2023-04-12T11:27:47;2.65;;;1.23;;
35223;SDS011;21367;51.930;8.112;2023-04-12T11:33:02;1.35;;;0.57;;
35223;SDS011;21367;51.930;8.112;2023-04-12T11:38:09;0.82;;;0.60;;
35223;SDS011;21367;51.930;8.112;2023-04-12T11:43:20;1.27;;;0.50;;
35223;SDS011;21367;51.930;8.112;2023-04-12T11:48:27;1.02;;;0.50;;
35223;SDS011;21367;51.930;8.112;2023-04-12T11:53:33;1.92;;;0.80;;
35223;SDS011;21367;51.930;8.112;2023-04-12T11:58:40;4.10;;;1.00;;
35223;SDS011;21367;51.930;8.112;2023-04-12T12:08:48;3.97;;;1.27;;
35223;SDS011;21367;51.930;8.112;2023-04-12T12:13:56;2.78;;;0.80;;
35223;SDS011;21367;51.930;8.112;2023-04-12T12:19:06;3.75;;;1.00;;
35223;SDS011;21367;51.930;8.112;2023-04-12T12:24:12;1.65;;;0.98;;
35223;SDS011;21367;51.930;8.112;2023-04-12T12:29:19;1.95;;;1.00;;
35223;SDS011;21367;51.930;8.112;2023-04-12T12:34:30;2.28;;;1.58;;
35223;SDS011;21367;51.930;8.112;2023-04-12T12:39:36;3.28;;;1.80;;
35223;SDS011;21367;51.930;8.112;2023-04-12T12:44:42;4.57;;;2.25;;
35223;SDS011;21367;51.930;8.112;2023-04-12T12:49:46;4.05;;;3.15;;
35223;SDS011;21367;51.930;8.112;2023-04-12T12:54:53;7.03;;;3.85;;
35223;SDS011;21367;51.930;8.112;2023-04-12T13:00:00;4.22;;;3.08;;
35223;SDS011;21367;51.930;8.112;2023-04-12T13:05:09;5.80;;;3.55;;
35223;SDS011;21367;51.930;8.112;2023-04-12T13:10:14;2.70;;;2.13;;
35223;SDS011;21367;51.930;8.112;2023-04-12T13:15:20;3.45;;;2.17;;
35223;SDS011;21367;51.930;8.112;2023-04-12T13:20:24;3.85;;;2.42;;
35223;SDS011;21367;51.930;8.112;2023-04-12T13:25:28;3.47;;;2.75;;
35223;SDS011;21367;51.930;8.112;2023-04-12T13:30:35;3.40;;;2.53;;
35223;SDS011;21367;51.930;8.112;2023-04-12T13:35:39;4.53;;;2.00;;
35223;SDS011;21367;51.930;8.112;2023-04-12T13:40:43;2.30;;;1.13;;
35223;SDS011;21367;51.930;8.112;2023-04-12T13:45:50;3.40;;;1.38;;
35223;SDS011;21367;51.930;8.112;2023-04-12T13:50:53;1.75;;;1.17;;
35223;SDS011;21367;51.930;8.112;2023-04-12T13:55:59;2.37;;;1.10;;
35223;SDS011;21367;51.930;8.112;2023-04-12T14:01:11;2.40;;;0.80;;
35223;SDS011;21367;51.930;8.112;2023-04-12T14:06:16;1.33;;;0.80;;
35223;SDS011;21367;51.930;8.112;2023-04-12T14:11:22;1.58;;;0.80;;
35223;SDS011;21367;51.930;8.112;2023-04-12T14:16:29;4.82;;;0.60;;
35223;SDS011;21367;51.930;8.112;2023-04-12T14:21:33;0.30;;;0.30;;
35223;SDS011;21367;51.930;8.112;2023-04-12T14:26:38;0.90;;;0.35;;
35223;SDS011;21367;51.930;8.112;2023-04-12T14:31:45;1.60;;;0.70;;
35223;SDS011;21367;51.930;8.112;2023-04-12T14:36:52;1.90;;;0.60;;
35223;SDS011;21367;51.930;8.112;2023-04-12T14:41:57;3.20;;;0.68;;
35223;SDS011;21367;51.930;8.112;2023-04-12T14:47:06;2.05;;;0.93;;
35223;SDS011;21367;51.930;8.112;2023-04-12T14:52:11;3.80;;;1.02;;
35223;SDS011;21367;51.930;8.112;2023-04-12T14:57:19;2.08;;;0.95;;
35223;SDS011;21367;51.930;8.112;2023-04-12T15:02:32;3.13;;;1.42;;
35223;SDS011;21367;51.930;8.112;2023-04-12T15:07:38;6.03;;;1.17;;
35223;SDS011;21367;51.930;8.112;2023-04-12T15:12:43;6.20;;;1.63;;
35223;SDS011;21367;51.930;8.112;2023-04-12T15:23:48;5.63;;;1.20;;
35223;SDS011;21367;51.930;8.112;2023-04-12T15:34:08;5.55;;;1.45;;
35223;SDS011;21367;51.930;8.112;2023-04-12T15:39:14;7.00;;;1.70;;
35223;SDS011;21367;51.930;8.112;2023-04-12T15:44:28;9.23;;;1.63;;
35223;SDS011;21367;51.930;8.112;2023-04-12T15:50:15;6.50;;;1.65;;
35223;SDS011;21367;51.930;8.112;2023-04-12T15:55:22;16.23;;;2.67;;
35223;SDS011;21367;51.930;8.112;2023-04-12T16:00:33;13.75;;;2.75;;
35223;SDS011;21367;51.930;8.112;2023-04-12T16:05:46;10.77;;;2.50;;
35223;SDS011;21367;51.930;8.112;2023-04-12T16:11:10;8.30;;;1.63;;
35223;SDS011;21367;51.930;8.112;2023-04-12T16:16:14;6.03;;;1.52;;
35223;SDS011;21367;51.930;8.112;2023-04-12T16:22:02;4.88;;;1.35;;
35223;SDS011;21367;51.930;8.112;2023-04-12T16:27:19;9.07;;;2.15;;
35223;SDS011;21367;51.930;8.112;2023-04-12T16:32:26;8.40;;;1.63;;
35223;SDS011;21367;51.930;8.112;2023-04-12T16:37:52;7.82;;;2.20;;
35223;SDS011;21367;51.930;8.112;2023-04-12T16:42:57;15.85;;;3.22;;
35223;SDS011;21367;51.930;8.112;2023-04-12T16:48:02;14.25;;;2.47;;
35223;SDS011;21367;51.930;8.112;2023-04-12T16:53:09;19.98;;;2.83;;
35223;SDS011;21367;51.930;8.112;2023-04-12T16:58:14;16.17;;;2.42;;
35223;SDS011;21367;51.930;8.112;2023-04-12T17:03:19;10.00;;;2.60;;
35223;SDS011;21367;51.930;8.112;2023-04-12T17:08:26;13.52;;;2.53;;
35223;SDS011;21367;51.930;8.112;2023-04-12T17:18:36;11.47;;;2.53;;
35223;SDS011;21367;51.930;8.112;2023-04-12T17:23:45;12.18;;;2.90;;
35223;SDS011;21367;51.930;8.112;2023-04-12T17:28:51;15.73;;;3.30;;
35223;SDS011;21367;51.930;8.112;2023-04-12T17:33:56;12.27;;;2.38;;
35223;SDS011;21367;51.930;8.112;2023-04-12T17:39:03;16.17;;;2.50;;
35223;SDS011;21367;51.930;8.112;2023-04-12T17:44:07;17.08;;;2.35;;
35223;SDS011;21367;51.930;8.112;2023-04-12T17:49:11;14.60;;;2.67;;
35223;SDS011;21367;51.930;8.112;2023-04-12T17:54:18;16.88;;;3.05;;
35223;SDS011;21367;51.930;8.112;2023-04-12T17:59:23;20.35;;;2.75;;
35223;SDS011;21367;51.930;8.112;2023-04-12T18:04:27;17.60;;;3.92;;
35223;SDS011;21367;51.930;8.112;2023-04-12T18:14:44;14.27;;;2.60;;
35223;SDS011;21367;51.930;8.112;2023-04-12T18:19:48;10.90;;;2.55;;
35223;SDS011;21367;51.930;8.112;2023-04-12T18:24:55;7.75;;;1.98;;
35223;SDS011;21367;51.930;8.112;2023-04-12T18:29:59;8.23;;;1.73;;
35223;SDS011;21367;51.930;8.112;2023-04-12T18:35:05;15.43;;;2.13;;
35223;SDS011;21367;51.930;8.112;2023-04-12T18:40:14;13.32;;;5.00;;
35223;SDS011;21367;51.930;8.112;2023-04-12T18:45:19;14.65;;;4.30;;
35223;SDS011;21367;51.930;8.112;2023-04-12T18:50:27;24.00;;;5.20;;
35223;SDS011;21367;51.930;8.112;2023-04-12T18:55:34;13.27;;;2.33;;
35223;SDS011;21367;51.930;8.112;2023-04-12T19:00:38;12.93;;;2.13;;
35223;SDS011;21367;51.930;8.112;2023-04-12T19:05:44;7.28;;;2.28;;
35223;SDS011;21367;51.930;8.112;2023-04-12T19:10:53;7.97;;;2.42;;
35223;SDS011;21367;51.930;8.112;2023-04-12T19:15:59;9.68;;;2.60;;
35223;SDS011;21367;51.930;8.112;2023-04-12T19:21:10;12.55;;;3.28;;
35223;SDS011;21367;51.930;8.112;2023-04-12T19:26:21;18.50;;;3.88;;
35223;SDS011;21367;51.930;8.112;2023-04-12T19:31:27;12.90;;;3.00;;
35223;SDS011;21367;51.930;8.112;2023-04-12T19:36:33;9.40;;;2.55;;
35223;SDS011;21367;51.930;8.112;2023-04-12T19:41:55;8.57;;;2.90;;
35223;SDS011;21367;51.930;8.112;2023-04-12T19:47:01;13.00;;;2.80;;
35223;SDS011;21367;51.930;8.112;2023-04-12T19:52:11;10.65;;;2.30;;
35223;SDS011;21367;51.930;8.112;2023-04-12T19:57:28;5.10;;;1.58;;
35223;SDS011;21367;51.930;8.112;2023-04-12T20:02:53;5.35;;;1.50;;
35223;SDS011;21367;51.930;8.112;2023-04-12T20:08:13;9.48;;;1.30;;
35223;SDS011;21367;51.930;8.112;2023-04-12T20:13:32;5.70;;;1.27;;
35223;SDS011;21367;51.930;8.112;2023-04-12T20:18:42;5.97;;;1.70;;
35223;SDS011;21367;51.930;8.112;2023-04-12T20:24:05;10.85;;;1.17;;
35223;SDS011;21367;51.930;8.112;2023-04-12T20:29:15;5.82;;;1.23;;
35223;SDS011;21367;51.930;8.112;2023-04-12T20:34:24;2.47;;;1.20;;
35223;SDS011;21367;51.930;8.112;2023-04-12T20:39:29;3.33;;;1.20;;
35223;SDS011;21367;51.930;8.112;2023-04-12T20:44:40;7.75;;;1.80;;
35223;SDS011;21367;51.930;8.112;2023-04-12T20:49:44;11.38;;;3.17;;
35223;SDS011;21367;51.930;8.112;2023-04-12T20:54:51;6.90;;;3.13;;
35223;SDS011;21367;51.930;8.112;2023-04-12T21:00:05;7.45;;;2.67;;
35223;SDS011;21367;51.930;8.112;2023-04-12T21:05:17;16.60;;;4.75;;
35223;SDS011;21367;51.930;8.112;2023-04-12T21:10:22;27.48;;;8.93;;
35223;SDS011;21367;51.930;8.112;2023-04-12T21:15:33;12.05;;;3.60;;
35223;SDS011;21367;51.930;8.112;2023-04-12T21:20:38;15.50;;;3.63;;
35223;SDS011;21367;51.930;8.112;2023-04-12T21:26:15;7.82;;;1.70;;
35223;SDS011;21367;51.930;8.112;2023-04-12T21:31:21;4.90;;;1.85;;
35223;SDS011;21367;51.930;8.112;2023-04-12T21:36:26;4.28;;;1.85;;
35223;SDS011;21367;51.930;8.112;2023-04-12T21:41:31;4.17;;;2.27;;
35223;SDS011;21367;51.930;8.112;2023-04-12T21:46:40;6.47;;;2.13;;
35223;SDS011;21367;51.930;8.112;2023-04-12T21:51:44;7.63;;;2.72;;
35223;SDS011;21367;51.930;8.112;2023-04-12T21:56:51;14.43;;;3.55;;
35223;SDS011;21367;51.930;8.112;2023-04-12T22:02:49;6.93;;;3.20;;
35223;SDS011;21367;51.930;8.112;2023-04-12T22:08:09;12.23;;;4.00;;
35223;SDS011;21367;51.930;8.112;2023-04-12T22:13:17;14.77;;;3.80;;
35223;SDS011;21367;51.930;8.112;2023-04-12T22:18:25;10.38;;;4.20;;
35223;SDS011;21367;51.930;8.112;2023-04-12T22:23:31;14.18;;;4.53;;
35223;SDS011;21367;51.930;8.112;2023-04-12T22:28:40;20.67;;;6.85;;
35223;SDS011;21367;51.930;8.112;2023-04-12T22:33:50;17.13;;;6.75;;
35223;SDS011;21367;51.930;8.112;2023-04-12T22:38:54;15.13;;;5.03;;
35223;SDS011;21367;51.930;8.112;2023-04-12T22:44:00;10.13;;;4.40;;
35223;SDS011;21367;51.930;8.112;2023-04-12T23:01:18;13.60;;;4.35;;
35223;SDS011;21367;51.930;8.112;2023-04-12T23:06:54;11.13;;;3.63;;
35223;SDS011;21367;51.930;8.112;2023-04-12T23:12:01;9.35;;;3.22;;
35223;SDS011;21367;51.930;8.112;2023-04-12T23:17:06;9.40;;;3.88;;
35223;SDS011;21367;51.930;8.112;2023-04-12T23:22:13;7.40;;;3.10;;
35223;SDS011;21367;51.930;8.112;2023-04-12T23:27:34;8.95;;;2.70;;
35223;SDS011;21367;51.930;8.112;2023-04-12T23:32:39;8.00;;;2.75;;
35223;SDS011;21367;51.930;8.112;2023-04-12T23:37:43;12.93;;;2.80;;
35223;SDS011;21367;51.930;8.112;2023-04-12T23:42:51;7.13;;;3.00;;
35223;SDS011;21367;51.930;8.112;2023-04-12T23:47:58;8.02;;;2.35;;
35223;SDS011;21367;51.930;8.112;2023-04-12T23:53:14;4.80;;;2.40;;
